Time;durP1;ratioP1;P1;durP2;ratioP2;P2;SDS_P1;SDS_P2;PMS_P1;PMS_P2;Temp;Humidity;BMP_temperature;BMP_pressure;BME280_temperature;BME280_humidity;BME280_pressure;Samples;Min_cycle;Max_cycle;Signal;HPM_P1;HPM_P2
2022/09/23 00:00:42;;;;;;;5.80;5.25;;;;;;;8.20;88.63;101869.81;5072653;28;20120;-81
2022/09/23 00:03:09;;;;;;;6.57;5.20;;;;;;;8.22;88.60;101870.19;5054668;28;20076;-81
2022/09/23 00:05:37;;;;;;;7.72;5.18;;;;;;;8.21;88.33;101866.03;5070828;28;20052;-81
2022/09/23 00:08:05;;;;;;;6.53;4.85;;;;;;;8.23;88.66;101869.03;5037742;28;20509;-81
2022/09/23 00:10:31;;;;;;;5.20;4.85;;;;;;;8.23;88.50;101870.94;5054021;28;20135;-81
2022/09/23 00:12:58;;;;;;;6.68;5.40;;;;;;;8.21;88.58;101863.38;5072603;28;20073;-81
2022/09/23 00:15:25;;;;;;;6.28;5.20;;;;;;;8.19;88.49;101863.00;5054207;28;20057;-81
2022/09/23 00:17:52;;;;;;;5.93;5.32;;;;;;;8.18;88.47;101866.06;5070619;28;20499;-81
2022/09/23 00:20:19;;;;;;;6.45;5.35;;;;;;;8.16;88.47;101853.19;5070531;28;20489;-81
2022/09/23 00:22:45;;;;;;;6.28;5.07;;;;;;;8.13;88.74;101858.53;5071818;28;20076;-81
2022/09/23 00:25:12;;;;;;;9.60;6.30;;;;;;;8.10;88.62;101854.75;5071759;28;20120;-81
2022/09/23 00:27:40;;;;;;;5.70;5.20;;;;;;;8.10;88.78;101854.75;5072119;28;20051;-81
2022/09/23 00:30:09;;;;;;;6.30;5.68;;;;;;;8.04;88.69;101853.69;5072217;28;20551;-81
2022/09/23 00:32:36;;;;;;;5.93;5.50;;;;;;;8.03;88.75;101852.19;5071933;28;20073;-81
2022/09/23 00:35:03;;;;;;;7.22;6.00;;;;;;;8.01;88.87;101843.88;5070299;28;20067;-81
2022/09/23 00:37:30;;;;;;;6.32;5.72;;;;;;;7.96;89.06;101854.94;5072169;28;20068;-81
2022/09/23 00:39:59;;;;;;;6.05;5.55;;;;;;;7.91;89.57;101850.06;5072206;28;20068;-81
2022/09/23 00:42:26;;;;;;;6.35;5.30;;;;;;;7.90;89.21;101840.59;5072765;28;20523;-81
2022/09/23 00:44:58;;;;;;;7.85;6.00;;;;;;;7.91;89.07;101837.53;5054108;28;20087;-81
2022/09/23 00:47:39;;;;;;;6.00;5.50;;;;;;;7.94;88.92;101839.41;5054226;28;20079;-81
2022/09/23 00:50:25;;;;;;;5.90;5.38;;;;;;;7.90;88.81;101835.28;5053614;28;20121;-81
2022/09/23 00:52:55;;;;;;;7.47;5.63;;;;;;;7.86;89.05;101829.25;5072355;28;20049;-81
2022/09/23 00:55:27;;;;;;;5.97;5.38;;;;;;;7.86;88.67;101830.00;5054441;28;20143;-80
2022/09/23 00:57:55;;;;;;;8.07;5.25;;;;;;;7.87;89.06;101830.78;5071802;28;20607;-80
2022/09/23 01:00:22;;;;;;;6.57;5.35;;;;;;;7.87;89.30;101833.41;5071967;28;20072;-81
2022/09/23 01:02:50;;;;;;;6.70;5.20;;;;;;;7.82;89.20;101825.88;5071267;28;20076;-80
2022/09/23 01:05:17;;;;;;;6.32;5.78;;;;;;;7.81;89.13;101827.78;5071764;28;20401;-80
2022/09/23 01:07:44;;;;;;;5.53;5.03;;;;;;;7.80;89.05;101826.28;5051763;28;20049;-79
2022/09/23 01:10:13;;;;;;;6.25;5.32;;;;;;;7.76;89.51;101822.91;5070374;28;20041;-80
2022/09/23 01:13:06;;;;;;;6.25;5.70;;;;;;;7.68;89.56;101824.88;5053289;28;20045;-81
2022/09/23 01:16:05;;;;;;;5.57;5.07;;;;;;;7.64;89.43;101824.16;5069557;28;20166;-80
2022/09/23 01:18:52;;;;;;;5.88;5.13;;;;;;;7.60;89.32;101822.66;5045574;28;20139;-81
2022/09/23 01:21:40;;;;;;;6.00;5.32;;;;;;;7.59;89.35;101824.59;5075036;28;20514;-80
2022/09/23 01:24:31;;;;;;;6.30;5.72;;;;;;;7.57;89.01;101820.81;5074877;28;20080;-80
2022/09/23 01:27:11;;;;;;;5.95;5.45;;;;;;;7.51;89.31;101819.75;5073649;28;20603;-81
2022/09/23 01:30:00;;;;;;;7.47;6.03;;;;;;;7.51;89.18;101825.78;5073730;28;20410;-81
2022/09/23 01:32:37;;;;;;;6.55;5.95;;;;;;;7.49;89.25;101817.47;5073426;28;20119;-79
2022/09/23 01:35:08;;;;;;;7.95;6.38;;;;;;;7.47;89.43;101819.03;5075027;28;20509;-80
2022/09/23 01:37:59;;;;;;;13.55;5.90;;;;;;;7.47;89.16;101809.16;5056443;28;20485;-80
2022/09/23 01:40:50;;;;;;;6.23;5.73;;;;;;;7.48;89.15;101808.03;5075295;28;20041;-79
2022/09/23 01:43:24;;;;;;;6.35;5.85;;;;;;;7.46;89.35;101806.91;5075116;28;20094;-79
2022/09/23 01:45:58;;;;;;;7.05;6.35;;;;;;;7.45;89.49;101805.41;5074714;28;20080;-79
2022/09/23 01:48:43;;;;;;;9.95;6.35;;;;;;;7.38;89.51;101806.22;5073500;28;20041;-79
2022/09/23 01:51:41;;;;;;;11.68;6.70;;;;;;;7.34;89.79;101806.25;5074826;28;20055;-80
2022/09/23 01:54:30;;;;;;;9.65;6.72;;;;;;;7.27;89.97;101801.00;5074732;28;20500;-80
2022/09/23 01:57:02;;;;;;;8.82;6.80;;;;;;;7.25;90.26;101807.81;5074830;28;20135;-80
2022/09/23 01:59:39;;;;;;;8.40;6.68;;;;;;;7.28;90.02;101807.81;5074935;28;20045;-80
2022/09/23 02:02:14;;;;;;;9.95;6.65;;;;;;;7.30;90.14;101802.09;5074394;28;20124;-80
2022/09/23 02:04:53;;;;;;;11.23;7.13;;;;;;;7.28;89.89;101796.44;5074698;28;20047;-80
2022/09/23 02:07:44;;;;;;;8.02;7.13;;;;;;;7.23;89.98;101794.97;5074558;28;20045;-80
2022/09/23 02:10:35;;;;;;;7.80;7.10;;;;;;;7.16;90.24;101792.41;5074441;28;20495;-80
2022/09/23 02:13:08;;;;;;;7.07;6.43;;;;;;;7.16;90.38;101789.00;5074466;28;20049;-80
2022/09/23 02:15:43;;;;;;;7.45;6.75;;;;;;;7.20;90.31;101789.69;5073699;28;20092;-80
2022/09/23 02:18:19;;;;;;;9.85;7.20;;;;;;;7.16;90.22;101789.75;5074497;28;20127;-80
2022/09/23 02:20:47;;;;;;;7.03;6.47;;;;;;;7.15;90.50;101782.94;5074329;28;20068;-80
2022/09/23 02:23:19;;;;;;;7.57;6.78;;;;;;;7.16;90.43;101784.44;5074108;28;20277;-80
2022/09/23 02:25:52;;;;;;;7.72;6.97;;;;;;;7.19;90.15;101782.94;5074204;28;20059;-80
2022/09/23 02:28:33;;;;;;;9.70;6.80;;;;;;;7.20;89.98;101773.81;5055113;28;20056;-80
2022/09/23 02:31:20;;;;;;;7.43;6.72;;;;;;;7.18;90.08;101766.28;5055351;28;20125;-79
2022/09/23 02:33:55;;;;;;;7.50;6.80;;;;;;;7.19;90.05;101759.09;5072667;28;20616;-79
2022/09/23 02:36:30;;;;;;;8.40;6.70;;;;;;;7.18;90.19;101757.59;5073018;28;20125;-80
2022/09/23 02:39:02;;;;;;;7.43;6.72;;;;;;;7.12;90.11;101765.19;5074109;28;20137;-80
2022/09/23 02:41:43;;;;;;;7.30;6.60;;;;;;;7.09;90.24;101751.97;5073077;28;20037;-80
2022/09/23 02:44:15;;;;;;;7.03;6.33;;;;;;;7.03;90.25;101755.03;5073686;28;20075;-80
2022/09/23 02:46:43;;;;;;;9.45;6.90;;;;;;;6.97;90.40;101751.28;5073771;28;20087;-80
2022/09/23 02:49:16;;;;;;;7.63;6.93;;;;;;;6.98;90.14;101750.16;5055545;28;20072;-80
2022/09/23 02:51:43;;;;;;;7.70;7.00;;;;;;;6.96;90.25;101749.03;5055225;28;20492;-80
2022/09/23 02:54:14;;;;;;;7.35;6.60;;;;;;;6.96;90.21;101739.19;5073725;28;20155;-81
2022/09/23 02:56:41;;;;;;;7.03;6.43;;;;;;;6.95;90.27;101731.66;5073582;28;20073;-80
2022/09/23 02:59:09;;;;;;;7.20;6.50;;;;;;;6.93;90.44;101742.63;5073152;28;20127;-81
2022/09/23 03:01:55;;;;;;;9.52;6.43;;;;;;;6.89;90.35;101735.84;5073137;28;20124;-81
2022/09/23 03:04:41;;;;;;;7.25;6.55;;;;;;;6.85;90.33;101740.41;5063031;28;20061;-80
2022/09/23 03:07:34;;;;;;;8.88;6.18;;;;;;;6.81;90.22;101743.09;5073613;28;20111;-81
2022/09/23 03:10:06;;;;;;;6.70;6.10;;;;;;;6.79;90.38;101731.41;5073518;28;20049;-81
2022/09/23 03:13:06;;;;;;;9.40;6.18;;;;;;;6.75;90.34;101731.44;5073517;28;20052;-80
2022/09/23 03:15:42;;;;;;;9.77;5.97;;;;;;;6.72;90.37;101731.44;5071824;28;20044;-80
2022/09/23 03:18:16;;;;;;;8.25;6.40;;;;;;;6.72;90.36;101731.44;5071487;28;20139;-81
2022/09/23 03:20:51;;;;;;;7.20;6.50;;;;;;;6.72;90.70;101720.88;5071696;28;20060;-80
2022/09/23 03:23:24;;;;;;;8.18;6.32;;;;;;;6.71;90.84;101720.09;5071874;28;20383;-80
2022/09/23 03:25:54;;;;;;;8.10;6.20;;;;;;;6.70;90.66;101723.91;5072992;28;20321;-80
2022/09/23 03:28:24;;;;;;;6.43;5.72;;;;;;;6.67;90.67;101727.31;5072927;28;20076;-81
2022/09/23 03:30:53;;;;;;;7.55;6.75;;;;;;;6.66;90.71;101733.75;5072982;28;20123;-80
2022/09/23 03:33:24;;;;;;;6.90;6.22;;;;;;;6.64;90.89;101728.09;5071969;28;20041;-81
2022/09/23 03:39:04;;;;;;;5.95;5.53;;;;;;;6.64;90.99;101717.50;5072729;28;20378;-81
2022/09/23 03:41:36;;;;;;;8.15;6.50;;;;;;;6.65;91.28;101729.59;5072551;28;20045;-81
2022/09/23 03:44:05;;;;;;;6.82;6.22;;;;;;;6.61;91.48;101716.38;5072671;28;20045;-81
2022/09/23 03:46:34;;;;;;;6.95;6.25;;;;;;;6.61;91.46;101718.28;5072748;28;20162;-81
2022/09/23 03:49:15;;;;;;;6.47;5.88;;;;;;;6.62;91.15;101709.19;5072789;28;20088;-81
2022/09/23 03:51:41;;;;;;;11.43;6.47;;;;;;;6.60;91.71;101708.84;5072839;28;20540;-81
2022/09/23 03:54:10;;;;;;;11.02;7.03;;;;;;;6.60;92.06;101712.25;5072434;28;20049;-81
2022/09/23 03:56:36;;;;;;;6.70;6.10;;;;;;;6.64;92.19;101709.56;5072391;28;20120;-81
2022/09/23 03:59:03;;;;;;;6.22;5.63;;;;;;;6.65;92.29;101706.53;5072843;28;20059;-81
2022/09/23 04:01:29;;;;;;;7.93;6.15;;;;;;;6.67;92.36;101701.59;5073217;28;20047;-81
2022/09/23 04:03:55;;;;;;;8.00;5.65;;;;;;;6.66;92.29;101700.09;5072568;28;20048;-81
2022/09/23 04:06:22;;;;;;;6.25;5.60;;;;;;;6.68;92.50;101699.72;5054624;28;20055;-81
2022/09/23 04:08:49;;;;;;;6.63;6.03;;;;;;;6.70;92.61;101700.09;5071223;28;20120;-80
2022/09/23 04:11:15;;;;;;;6.38;5.88;;;;;;;6.71;92.28;101698.19;5071950;28;20463;-81
2022/09/23 04:13:41;;;;;;;7.70;5.93;;;;;;;6.67;92.14;101695.56;5072621;28;20051;-80
2022/09/23 04:16:08;;;;;;;6.60;6.00;;;;;;;6.64;92.38;101691.81;5070993;28;20055;-81
2022/09/23 04:18:34;;;;;;;6.70;6.10;;;;;;;6.66;92.20;101699.34;5071980;28;20049;-80
2022/09/23 04:21:01;;;;;;;8.82;6.05;;;;;;;6.65;91.90;101693.31;5072467;28;20566;-81
2022/09/23 04:23:27;;;;;;;6.05;5.32;;;;;;;6.63;92.06;101708.06;5072562;28;20554;-81
2022/09/23 04:25:54;;;;;;;6.07;5.57;;;;;;;6.60;92.22;101698.25;5070118;28;20067;-80
2022/09/23 04:28:21;;;;;;;6.40;5.85;;;;;;;6.57;92.19;101699.03;5054244;28;20049;-80
2022/09/23 04:30:48;;;;;;;5.95;5.32;;;;;;;6.62;92.25;101698.63;5072026;28;20073;-80
2022/09/23 04:33:16;;;;;;;6.13;5.60;;;;;;;6.62;92.04;101698.63;5071842;28;20044;-80
2022/09/23 04:35:42;;;;;;;6.28;5.38;;;;;;;6.64;92.27;101691.03;5072296;28;20124;-80
2022/09/23 04:38:12;;;;;;;6.65;5.28;;;;;;;6.66;92.35;101694.81;5072105;28;20547;-80
2022/09/23 04:40:39;;;;;;;6.13;5.60;;;;;;;6.65;92.65;101684.63;5071383;28;20041;-80
2022/09/23 04:43:05;;;;;;;6.15;5.47;;;;;;;6.68;92.74;101689.13;5070708;28;20049;-81
2022/09/23 04:45:38;;;;;;;8.40;5.85;;;;;;;6.73;93.13;101686.06;5072212;28;20481;-80
2022/09/23 04:48:04;;;;;;;6.18;5.68;;;;;;;6.75;93.67;101685.69;5070466;28;20493;-80
2022/09/23 04:50:32;;;;;;;9.80;7.40;;;;;;;6.78;93.61;101685.66;5072091;28;20532;-80
2022/09/23 04:52:59;;;;;;;6.65;5.53;;;;;;;6.79;93.63;101692.47;5073849;28;20052;-80
2022/09/23 04:55:25;;;;;;;7.15;6.05;;;;;;;6.79;93.97;101689.06;5075172;28;20163;-80
2022/09/23 04:57:52;;;;;;;6.60;5.95;;;;;;;6.82;93.98;101683.72;5075618;28;20124;-80
2022/09/23 05:00:22;;;;;;;6.70;6.18;;;;;;;6.83;94.22;101687.13;5074490;28;20128;-80
2022/09/23 05:02:49;;;;;;;7.53;5.72;;;;;;;6.87;93.96;101693.13;5075439;28;20045;-80
2022/09/23 05:05:19;;;;;;;8.52;5.88;;;;;;;6.90;93.96;101687.06;5075644;28;20498;-80
2022/09/23 05:07:47;;;;;;;7.13;6.20;;;;;;;6.91;93.81;101684.03;5057380;28;20053;-80
2022/09/23 05:10:14;;;;;;;6.65;5.95;;;;;;;6.94;93.61;101677.19;5074872;28;20103;-80
2022/09/23 05:12:41;;;;;;;6.30;5.68;;;;;;;6.99;94.10;101674.13;5074925;28;20076;-81
2022/09/23 05:15:07;;;;;;;16.38;6.47;;;;;;;7.01;94.03;101679.78;5040655;28;20055;-81
2022/09/23 05:17:36;;;;;;;6.85;6.20;;;;;;;7.02;94.24;101679.41;5073688;28;20069;-80
2022/09/23 05:20:03;;;;;;;8.20;6.35;;;;;;;7.06;94.17;101674.06;5075257;28;20052;-80
2022/09/23 05:22:30;;;;;;;7.25;6.50;;;;;;;7.07;94.04;101675.59;5073500;28;20045;-80
2022/09/23 05:24:59;;;;;;;8.35;6.53;;;;;;;7.08;94.35;101676.34;5074243;28;20061;-80
2022/09/23 05:27:25;;;;;;;6.85;6.22;;;;;;;7.10;94.58;101685.38;5056779;28;20049;-80
2022/09/23 05:29:52;;;;;;;7.22;6.53;;;;;;;7.11;94.55;101678.94;5073649;28;20079;-80
2022/09/23 05:32:18;;;;;;;7.07;6.38;;;;;;;7.10;94.39;101680.09;5074797;28;20045;-80
2022/09/23 05:34:45;;;;;;;7.18;6.47;;;;;;;7.11;94.45;101680.84;5073132;28;20561;-80
2022/09/23 05:37:12;;;;;;;7.05;6.35;;;;;;;7.09;95.02;101686.53;5074662;28;20114;-80
2022/09/23 05:39:38;;;;;;;7.80;6.78;;;;;;;7.11;94.85;101680.84;5074283;28;20077;-80
2022/09/23 05:42:05;;;;;;;6.90;6.30;;;;;;;7.13;95.13;101686.50;5075519;28;20095;-80
2022/09/23 05:44:32;;;;;;;13.80;6.57;;;;;;;7.16;94.89;101688.38;5075045;28;20120;-80
2022/09/23 05:46:58;;;;;;;6.72;6.13;;;;;;;7.18;95.09;101686.09;5074603;28;20095;-81
2022/09/23 05:49:25;;;;;;;8.15;6.95;;;;;;;7.21;95.26;101690.56;5074505;28;20075;-81
2022/09/23 05:52:11;;;;;;;6.97;6.35;;;;;;;7.26;95.45;101682.19;5074710;28;20036;-81
2022/09/23 05:54:38;;;;;;;8.23;7.20;;;;;;;7.32;95.30;101691.22;5074199;28;20565;-81
2022/09/23 05:57:04;;;;;;;9.95;6.78;;;;;;;7.37;96.01;101688.16;5075431;28;20117;-75
2022/09/23 05:59:31;;;;;;;9.82;7.32;;;;;;;7.42;96.14;101686.97;5074989;28;20121;-79
2022/09/23 06:01:58;;;;;;;10.90;8.10;;;;;;;7.47;96.03;101695.25;5057079;28;20081;-80
2022/09/23 06:04:25;;;;;;;8.35;7.53;;;;;;;7.50;95.76;101694.47;5075101;28;20049;-82
2022/09/23 06:06:52;;;;;;;9.02;8.15;;;;;;;7.53;95.61;101698.97;5056256;28;20128;-81
2022/09/23 06:09:18;;;;;;;14.27;9.23;;;;;;;7.54;95.73;101689.88;5075366;28;20547;-78
2022/09/23 06:11:45;;;;;;;11.60;8.65;;;;;;;7.58;95.84;101693.25;5073701;28;20545;-85
2022/09/23 06:14:13;;;;;;;10.05;9.05;;;;;;;7.61;96.16;101697.72;5076219;28;20128;-80
2022/09/23 06:16:39;;;;;;;12.90;9.10;;;;;;;7.65;96.22;101692.38;5076375;28;20075;-90
2022/09/23 06:19:06;;;;;;;10.70;8.55;;;;;;;7.70;96.15;101694.59;5077329;28;20053;-86
2022/09/23 06:21:36;;;;;;;11.43;8.73;;;;;;;7.73;96.09;101691.16;5074438;28;20116;-89
2022/09/23 06:24:02;;;;;;;13.50;9.27;;;;;;;7.77;96.25;101691.88;5074598;28;20132;-88
2022/09/23 06:26:32;;;;;;;11.30;8.93;;;;;;;7.83;96.51;101686.91;5075839;28;20552;-86
2022/09/23 06:29:00;;;;;;;10.40;8.73;;;;;;;7.87;96.40;101680.41;5082745;28;20037;-87
2022/09/23 06:31:27;;;;;;;13.25;8.73;;;;;;;7.93;96.44;101686.78;5077439;28;20124;-82
2022/09/23 06:33:54;;;;;;;10.38;9.32;;;;;;;8.00;96.38;101684.00;5074216;28;20501;-82
2022/09/23 06:36:36;;;;;;;11.15;9.38;;;;;;;8.07;96.41;101682.41;5070096;28;20490;-78
2022/09/23 06:39:11;;;;;;;14.70;10.40;;;;;;;8.12;96.37;101680.06;5074485;28;20049;-82
2022/09/23 06:41:38;;;;;;;14.88;11.23;;;;;;;8.18;96.59;101678.47;5073166;28;20164;-81
2022/09/23 06:44:10;;;;;;;12.80;11.18;;;;;;;8.28;96.29;101685.56;5074675;28;20124;-82
2022/09/23 06:46:36;;;;;;;15.43;12.57;;;;;;;8.38;96.76;101678.63;5074016;28;20595;-82
2022/09/23 06:49:03;;;;;;;29.58;12.55;;;;;;;8.46;96.64;101684.56;5056185;28;20095;-80
2022/09/23 06:51:29;;;;;;;16.15;12.82;;;;;;;8.56;96.52;101675.69;5073815;28;20103;-77
2022/09/23 06:53:56;;;;;;;18.52;13.00;;;;;;;8.67;96.58;101684.25;5074548;28;20041;-82
2022/09/23 06:56:23;;;;;;;19.95;13.40;;;;;;;8.77;96.21;101686.00;5074498;28;20037;-80
2022/09/23 06:58:51;;;;;;;20.15;13.45;;;;;;;8.89;96.29;101688.06;5073799;28;20087;-80
2022/09/23 07:01:18;;;;;;;19.35;14.25;;;;;;;9.01;95.96;101681.44;5074251;28;20481;-80
2022/09/23 07:03:47;;;;;;;21.95;13.60;;;;;;;9.12;95.43;101682.00;5073889;28;20049;-80
2022/09/23 07:06:13;;;;;;;14.68;13.10;;;;;;;9.24;95.17;101693.91;5073810;28;20131;-85
2022/09/23 07:08:43;;;;;;;16.98;13.80;;;;;;;9.36;95.21;101682.72;5055587;28;20135;-80
2022/09/23 07:11:12;;;;;;;19.17;13.55;;;;;;;9.49;94.71;101680.19;5074041;28;20041;-80
2022/09/23 07:13:40;;;;;;;17.10;13.18;;;;;;;9.65;94.87;101682.91;5073889;28;20056;-82
2022/09/23 07:16:08;;;;;;;18.88;14.43;;;;;;;9.79;93.96;101681.88;5073580;28;20120;-79
2022/09/23 07:18:35;;;;;;;18.38;14.90;;;;;;;9.91;94.19;101681.25;5072355;28;20053;-81
2022/09/23 07:21:13;;;;;;;17.10;15.02;;;;;;;10.03;93.74;101686.69;5055459;28;20107;-81
2022/09/23 07:23:45;;;;;;;21.90;14.48;;;;;;;10.12;93.07;101686.13;5073094;28;20080;-81
2022/09/23 07:26:15;;;;;;;21.85;15.38;;;;;;;10.24;92.79;101682.84;5074174;28;20134;-82
2022/09/23 07:28:42;;;;;;;17.45;14.73;;;;;;;10.39;92.61;101682.56;5073450;28;20065;-81
2022/09/23 07:31:14;;;;;;;16.25;14.13;;;;;;;10.51;91.81;101666.66;5073899;28;20041;-81
2022/09/23 07:33:56;;;;;;;16.02;14.27;;;;;;;10.63;90.97;101675.91;5058236;28;20040;-82
2022/09/23 07:36:23;;;;;;;25.38;18.45;;;;;;;10.73;90.87;101674.91;5072393;28;20124;-81
2022/09/23 07:38:50;;;;;;;17.33;14.70;;;;;;;10.84;89.86;101679.94;5073514;28;20802;-81
2022/09/23 07:41:18;;;;;;;18.63;15.38;;;;;;;10.92;88.51;101687.34;5073848;28;20132;-81
2022/09/23 07:43:45;;;;;;;16.35;13.60;;;;;;;11.02;88.88;101691.66;5073321;28;20076;-80
2022/09/23 07:46:15;;;;;;;15.30;13.75;;;;;;;11.11;88.37;101693.00;5073933;28;20120;-80
2022/09/23 07:48:43;;;;;;;21.63;13.60;;;;;;;11.20;88.60;101693.88;5054741;28;20048;-81
2022/09/23 07:51:17;;;;;;;17.95;14.15;;;;;;;11.33;88.57;101694.66;5073463;28;20072;-81
2022/09/23 07:53:48;;;;;;;16.98;14.43;;;;;;;11.44;87.16;101689.06;5073454;28;20045;-81
2022/09/23 07:56:17;;;;;;;15.60;13.87;;;;;;;11.58;86.93;101699.34;5073595;28;20044;-81
2022/09/23 07:58:58;;;;;;;17.58;14.07;;;;;;;11.75;86.03;101692.00;5072978;28;20160;-81
2022/09/23 08:01:27;;;;;;;19.50;14.17;;;;;;;11.91;86.65;101694.66;5054755;28;20068;-83
2022/09/23 08:03:58;;;;;;;15.80;14.05;;;;;;;12.03;84.47;101693.13;5073240;28;20268;-83
2022/09/23 08:06:25;;;;;;;17.83;14.07;;;;;;;12.15;84.47;101692.41;5055251;28;20033;-82
2022/09/23 08:08:51;;;;;;;18.75;14.15;;;;;;;12.32;83.95;101704.50;5072919;28;20053;-83
2022/09/23 08:11:19;;;;;;;21.80;13.70;;;;;;;12.47;82.53;101691.44;5072796;28;20060;-83
2022/09/23 08:13:46;;;;;;;15.02;13.43;;;;;;;12.59;82.22;101692.59;5072671;28;20437;-83
2022/09/23 08:16:13;;;;;;;15.70;12.98;;;;;;;12.65;81.70;101688.22;5073041;28;20511;-82
2022/09/23 08:18:42;;;;;;;20.63;13.90;;;;;;;12.76;81.56;101688.63;5073058;28;20041;-94
2022/09/23 08:21:09;;;;;;;16.00;13.75;;;;;;;12.87;81.46;101690.94;5074164;28;20045;-87
2022/09/23 08:23:35;;;;;;;16.13;13.18;;;;;;;13.09;79.99;101696.31;5073324;28;20049;-78
2022/09/23 08:26:05;;;;;;;14.75;13.05;;;;;;;13.29;80.31;101699.47;5054886;28;20111;-79
2022/09/23 08:28:39;;;;;;;13.57;11.90;;;;;;;13.45;79.22;101696.63;5072119;28;20040;-79
2022/09/23 08:31:07;;;;;;;15.88;11.27;;;;;;;13.56;78.37;101702.34;5073005;28;20076;-86
2022/09/23 08:33:33;;;;;;;15.05;11.60;;;;;;;13.65;77.65;101694.34;5053928;28;20517;-81
2022/09/23 08:36:01;;;;;;;12.55;11.32;;;;;;;13.75;76.61;101681.03;5074142;28;20509;-88
2022/09/23 08:38:28;;;;;;;11.15;10.15;;;;;;;13.86;76.06;101692.09;5074850;28;20085;-89
2022/09/23 08:41:06;;;;;;;12.55;11.20;;;;;;;14.01;76.45;101690.38;5073734;28;20489;-88
2022/09/23 08:43:34;;;;;;;11.55;10.45;;;;;;;14.13;73.62;101688.78;5074120;28;20045;-89
2022/09/23 08:46:04;;;;;;;11.75;10.32;;;;;;;14.31;73.96;101688.88;5074348;28;20071;-89
2022/09/23 08:48:41;;;;;;;11.55;10.13;;;;;;;14.51;72.88;101688.47;5074321;28;20048;-84
2022/09/23 08:51:14;;;;;;;10.30;9.30;;;;;;;14.64;71.87;101689.09;5074941;28;20073;-80
2022/09/23 08:53:42;;;;;;;12.13;9.65;;;;;;;14.63;71.07;101696.41;5072281;28;20077;-82
2022/09/23 08:56:18;;;;;;;10.85;9.73;;;;;;;14.69;71.83;101693.88;5054525;28;20171;-83
2022/09/23 08:59:06;;;;;;;12.02;10.77;;;;;;;14.67;71.19;101694.31;5072324;28;20049;-84
2022/09/23 09:01:44;;;;;;;11.60;9.32;;;;;;;14.66;70.49;101692.84;5053505;28;20053;-84
2022/09/23 09:04:31;;;;;;;10.85;9.10;;;;;;;14.66;71.58;101686.72;5054558;28;20049;-83
2022/09/23 09:07:11;;;;;;;9.75;8.52;;;;;;;14.68;70.14;101682.41;5054407;28;20132;-85
2022/09/23 09:10:22;;;;;;;12.88;9.25;;;;;;;14.77;70.92;101687.06;5054713;28;20563;-87
2022/09/23 09:13:06;;;;;;;10.88;8.55;;;;;;;14.84;70.94;101681.38;5072537;28;20048;-85
2022/09/23 09:15:41;;;;;;;10.93;8.60;;;;;;;14.86;70.85;101681.69;5072095;28;20516;-86
2022/09/23 09:18:18;;;;;;;9.02;8.23;;;;;;;14.93;70.16;101684.06;5073007;28;20049;-86
2022/09/23 09:20:56;;;;;;;10.70;8.45;;;;;;;14.98;70.15;101675.44;5055339;28;20068;-84
2022/09/23 09:23:30;;;;;;;12.63;7.90;;;;;;;15.00;68.44;101677.66;5074460;28;20049;-83
2022/09/23 09:26:00;;;;;;;9.18;8.27;;;;;;;14.99;68.02;101687.66;5073894;28;20049;-88
2022/09/23 09:28:47;;;;;;;8.68;7.88;;;;;;;15.05;69.58;101679.75;5060066;28;20041;-78
2022/09/23 09:31:23;;;;;;;9.77;8.18;;;;;;;15.09;69.05;101680.34;5071935;28;20477;-83
2022/09/23 09:33:56;;;;;;;9.32;8.50;;;;;;;15.10;67.77;101676.47;5053455;28;20103;-84
2022/09/23 09:36:41;;;;;;;9.63;8.65;;;;;;;15.10;68.42;101676.47;5037291;28;20057;-82
2022/09/23 09:39:13;;;;;;;9.82;8.85;;;;;;;15.10;68.35;101673.81;5037651;28;20076;-83
2022/09/23 09:41:45;;;;;;;9.55;8.75;;;;;;;15.15;68.38;101672.47;5056866;28;20048;-82
2022/09/23 09:44:23;;;;;;;11.63;8.80;;;;;;;15.24;68.27;101669.75;5057064;28;20045;-82
2022/09/23 09:47:01;;;;;;;12.68;8.85;;;;;;;15.28;67.80;101668.41;5075315;28;20672;-83
2022/09/23 09:49:47;;;;;;;10.38;8.30;;;;;;;15.41;68.56;101673.59;5075358;28;20110;-83
2022/09/23 09:52:25;;;;;;;9.85;8.80;;;;;;;15.48;67.67;101678.66;5075746;28;20481;-83
2022/09/23 09:54:52;;;;;;;14.15;8.88;;;;;;;15.60;66.54;101668.97;5057634;28;20045;-83
2022/09/23 09:57:29;;;;;;;13.05;8.38;;;;;;;15.77;66.92;101667.44;5057777;28;20041;-85
2022/09/23 10:00:25;;;;;;;10.57;8.55;;;;;;;15.97;66.32;101672.28;5074653;28;20501;-85
2022/09/23 10:03:23;;;;;;;12.52;8.27;;;;;;;16.23;66.87;101661.84;5075154;28;20503;-84
2022/09/23 10:05:53;;;;;;;10.70;8.88;;;;;;;16.27;64.86;101667.81;5056728;28;20102;-85
2022/09/23 10:08:33;;;;;;;10.57;9.00;;;;;;;16.30;64.89;101664.97;5074996;28;20049;-85
2022/09/23 10:11:07;;;;;;;16.08;8.57;;;;;;;16.30;65.25;101662.28;5077169;28;20037;-85
2022/09/23 10:13:36;;;;;;;9.98;8.93;;;;;;;16.33;65.39;101658.66;5055805;28;20053;-88
2022/09/23 10:16:04;;;;;;;14.45;7.97;;;;;;;16.38;63.62;101651.19;5075679;28;20053;-80
2022/09/23 10:18:36;;;;;;;10.43;8.43;;;;;;;16.48;64.40;101656.03;5057451;28;20559;-94
2022/09/23 10:21:05;;;;;;;8.90;7.93;;;;;;;16.62;64.91;101655.34;5077293;28;20041;-85
2022/09/23 10:23:33;;;;;;;9.07;7.40;;;;;;;16.80;65.12;101654.47;5075862;28;20051;-82
2022/09/23 10:26:02;;;;;;;61.97;45.05;;;;;;;16.93;64.58;101646.16;5075377;28;20612;-85
2022/09/23 10:28:40;;;;;;;9.98;8.98;;;;;;;17.03;63.36;101641.44;5074597;28;20056;-83
2022/09/23 10:31:25;;;;;;;11.95;6.82;;;;;;;17.07;61.89;101648.13;5056984;28;20496;-86
2022/09/23 10:34:25;;;;;;;10.20;6.43;;;;;;;17.03;60.95;101642.19;5076580;28;20041;-83
2022/09/23 10:37:06;;;;;;;7.03;6.20;;;;;;;17.03;60.32;101636.81;5041670;28;20484;-86
2022/09/23 10:48:27;;;;;;;9.75;6.80;;;;;;;17.07;60.21;101637.38;5056836;28;20056;-91
2022/09/23 10:50:56;;;;;;;8.55;6.18;;;;;;;17.11;61.35;101639.88;5073472;28;20049;-88
2022/09/23 10:53:56;;;;;;;7.82;7.03;;;;;;;17.13;60.57;101637.47;5075028;28;20048;-90
2022/09/23 10:56:39;;;;;;;8.18;6.70;;;;;;;17.16;62.53;101648.06;5056529;28;20077;-83
2022/09/23 10:59:17;;;;;;;7.68;6.88;;;;;;;17.14;61.20;101644.34;5074376;28;20564;-85
2022/09/23 11:01:58;;;;;;;11.90;6.82;;;;;;;17.21;62.42;101639.31;5039684;28;20417;-85
2022/09/23 11:04:53;;;;;;;8.38;6.75;;;;;;;17.24;61.85;101649.16;5057125;28;20583;-85
2022/09/23 11:07:38;;;;;;;15.75;6.75;;;;;;;17.30;63.96;101646.56;5076723;28;20079;-91
2022/09/23 11:10:10;;;;;;;7.82;6.82;;;;;;;17.41;64.05;101637.94;5075766;28;20938;-89
2022/09/23 11:13:14;;;;;;;7.93;7.13;;;;;;;17.46;62.49;101643.41;5059112;28;20106;-86
2022/09/23 11:15:52;;;;;;;8.38;7.50;;;;;;;17.45;61.87;101641.91;5055632;28;20203;-82
2022/09/23 11:18:30;;;;;;;15.32;7.95;;;;;;;17.53;61.94;101637.66;5056171;28;20045;-82
2022/09/23 11:21:19;;;;;;;8.20;7.10;;;;;;;17.62;61.59;101634.84;5056308;28;20049;-82
2022/09/23 11:23:58;;;;;;;10.07;7.00;;;;;;;17.61;60.37;101638.72;5038263;28;20115;-82
2022/09/23 11:26:51;;;;;;;8.25;6.95;;;;;;;17.59;60.76;101635.75;5073554;28;20099;-82
2022/09/23 11:29:32;;;;;;;11.93;7.10;;;;;;;17.64;62.48;101639.75;5056176;28;20452;-82
2022/09/23 11:32:38;;;;;;;14.20;7.57;;;;;;;17.70;61.16;101639.88;5073848;28;20079;-82
2022/09/23 11:35:21;;;;;;;9.32;7.38;;;;;;;17.63;60.01;101636.31;5074046;28;20521;-82
2022/09/23 11:37:57;;;;;;;7.95;7.15;;;;;;;17.67;60.86;101630.78;5073200;28;20111;-82
2022/09/23 11:40:33;;;;;;;11.38;7.10;;;;;;;17.83;61.65;101630.28;5073193;28;20144;-82
2022/09/23 11:43:14;;;;;;;14.88;7.32;;;;;;;17.93;61.49;101631.66;5055424;28;20045;-83
2022/09/23 11:45:56;;;;;;;9.45;7.15;;;;;;;17.99;60.50;101620.97;5055119;28;20077;-82
2022/09/23 11:48:36;;;;;;;83.70;15.82;;;;;;;18.02;61.92;101630.78;5073550;28;20390;-82
2022/09/23 11:51:20;;;;;;;41.75;9.93;;;;;;;18.06;60.91;101620.53;5073918;28;20453;-82
2022/09/23 11:53:54;;;;;;;9.90;6.78;;;;;;;18.13;60.65;101608.63;5055241;28;20045;-82
2022/09/23 11:56:26;;;;;;;8.15;6.88;;;;;;;18.09;59.84;101614.22;5073524;28;20128;-83
2022/09/23 11:59:23;;;;;;;10.55;6.45;;;;;;;18.16;57.94;101610.38;5073473;28;20044;-82
2022/09/23 12:02:09;;;;;;;6.20;5.60;;;;;;;18.28;60.07;101610.06;5057560;28;20484;-82
2022/09/23 12:05:02;;;;;;;6.32;5.72;;;;;;;18.32;57.58;101610.59;5054961;28;20076;-82